JBU569 KBOS-KFLL
Flight info
| Callsign | JBU569 |
|---|---|
| Flight time | N/A |
| Altitude | 36000 |
| Route | SSOXS7 SSOXS Q167 RIFLE HEADI Q97 KALDA Q161 CHIEZ Y291 MAJIK CUUDA3 |
| Aircraft | A21N/M-SDE2E3FGHIRWXY/LB1 |
Departure
| Time | 2026-05-06 22:02 |
|---|---|
| Airport | Boston Logan International Airport (KBOS) |
Arrival
| Time | N/A |
|---|---|
| Airport | Fort Lauderdale Hollywood International Airport (KFLL) |
| Time | Latitude | Longitude | Altitude | Speed | Heading |
|---|---|---|---|---|---|
| 2026-05-06 21:48 | 42.36837 | -71.01465 | 29 ft | 0 kts | 248° |
| 2026-05-06 21:53 | 42.36840 | -71.01456 | 28 ft | 4 kts | 248° |
| 2026-05-06 21:54 | 42.36849 | -71.01423 | 28 ft | 2 kts | 248° |
| 2026-05-06 21:54 | 42.36859 | -71.01397 | 28 ft | 4 kts | 216° |
| 2026-05-06 21:54 | 42.36879 | -71.01391 | 28 ft | 4 kts | 145° |
| 2026-05-06 21:54 | 42.36898 | -71.01415 | 28 ft | 4 kts | 135° |
| 2026-05-06 21:55 | 42.36901 | -71.01418 | 28 ft | 0 kts | 135° |
| 2026-05-06 21:57 | 42.36898 | -71.01414 | 29 ft | 0 kts | 135° |
| 2026-05-06 21:58 | 42.36842 | -71.01332 | 29 ft | 8 kts | 114° |
| 2026-05-06 21:58 | 42.36858 | -71.01256 | 29 ft | 15 kts | 46° |
| 2026-05-06 21:58 | 42.36936 | -71.01163 | 29 ft | 15 kts | 40° |
| 2026-05-06 21:59 | 42.37025 | -71.01086 | 29 ft | 18 kts | 24° |
| 2026-05-06 21:59 | 42.37212 | -71.00963 | 29 ft | 36 kts | 26° |
| 2026-05-06 21:59 | 42.37432 | -71.00847 | 29 ft | 34 kts | 20° |
| 2026-05-06 21:59 | 42.37659 | -71.00734 | 29 ft | 36 kts | 20° |
| 2026-05-06 22:00 | 42.37832 | -71.00627 | 29 ft | 9 kts | 58° |
| 2026-05-06 22:00 | 42.37835 | -71.00579 | 29 ft | 4 kts | 98° |
| 2026-05-06 22:00 | 42.37813 | -71.00504 | 29 ft | 8 kts | 122° |
| 2026-05-06 22:00 | 42.37776 | -71.00481 | 29 ft | 4 kts | 198° |
| 2026-05-06 22:01 | 42.37773 | -71.00482 | 29 ft | 0 kts | 200° |
| 2026-05-06 22:01 | 42.37769 | -71.00485 | 29 ft | 5 kts | 200° |
| 2026-05-06 22:01 | 42.37465 | -71.00631 | 31 ft | 91 kts | 199° |
| 2026-05-06 22:01 | 42.36599 | -71.01054 | 149 ft | 161 kts | 200° |
| 2026-05-06 22:02 | 42.35475 | -71.01546 | 935 ft | 172 kts | 193° |
| 2026-05-06 22:02 | 42.34330 | -71.01525 | 2196 ft | 167 kts | 174° |
| 2026-05-06 22:02 | 42.33240 | -71.00625 | 3111 ft | 202 kts | 147° |
| 2026-05-06 22:02 | 42.32286 | -70.99107 | 4004 ft | 219 kts | 137° |
| 2026-05-06 22:03 | 42.31459 | -70.97314 | 4911 ft | 235 kts | 123° |
| 2026-05-06 22:03 | 42.31159 | -70.95008 | 5798 ft | 273 kts | 95° |
| 2026-05-06 22:03 | 42.31433 | -70.92286 | 6497 ft | 307 kts | 83° |
| 2026-05-06 22:03 | 42.31897 | -70.89415 | 7586 ft | 317 kts | 81° |
| 2026-05-06 22:04 | 42.32377 | -70.86461 | 8767 ft | 327 kts | 83° |
| 2026-05-06 22:04 | 42.32840 | -70.83447 | 9847 ft | 336 kts | 83° |
| 2026-05-06 22:04 | 42.33048 | -70.80301 | 10892 ft | 334 kts | 103° |
| 2026-05-06 22:04 | 42.32447 | -70.77268 | 11626 ft | 343 kts | 120° |
| 2026-05-06 22:05 | 42.31432 | -70.74208 | 12039 ft | 370 kts | 123° |
| 2026-05-06 22:05 | 42.30172 | -70.71090 | 12653 ft | 382 kts | 133° |
| 2026-05-06 22:05 | 42.28378 | -70.68491 | 13404 ft | 375 kts | 152° |
| 2026-05-06 22:05 | 42.26114 | -70.66860 | 14233 ft | 367 kts | 167° |
| 2026-05-06 22:06 | 42.23709 | -70.65700 | 15176 ft | 368 kts | 169° |
| 2026-05-06 22:06 | 42.21267 | -70.64610 | 16132 ft | 371 kts | 170° |
| 2026-05-06 22:06 | 42.18799 | -70.63512 | 17072 ft | 376 kts | 169° |
| 2026-05-06 22:06 | 42.16305 | -70.62552 | 17926 ft | 375 kts | 175° |
| 2026-05-06 22:07 | 42.13728 | -70.62183 | 18642 ft | 372 kts | 187° |
| 2026-05-06 22:07 | 42.11174 | -70.62592 | 19362 ft | 368 kts | 199° |
| 2026-05-06 22:07 | 42.08700 | -70.63550 | 20088 ft | 369 kts | 203° |
| 2026-05-06 22:07 | 42.06257 | -70.64636 | 20615 ft | 370 kts | 204° |
| 2026-05-06 22:08 | 42.03790 | -70.65751 | 21179 ft | 376 kts | 204° |
| 2026-05-06 22:08 | 42.01294 | -70.66870 | 21890 ft | 380 kts | 204° |
| 2026-05-06 22:08 | 41.98767 | -70.67993 | 22580 ft | 384 kts | 204° |
| 2026-05-06 22:08 | 41.96243 | -70.69109 | 23160 ft | 390 kts | 204° |
| 2026-05-06 22:09 | 41.93614 | -70.70267 | 23702 ft | 395 kts | 204° |
| 2026-05-06 22:09 | 41.91022 | -70.71406 | 24246 ft | 398 kts | 204° |
| 2026-05-06 22:09 | 41.88379 | -70.72565 | 24819 ft | 402 kts | 204° |
| 2026-05-06 22:09 | 41.85705 | -70.73743 | 25393 ft | 404 kts | 205° |
| 2026-05-06 22:10 | 41.83098 | -70.75149 | 25963 ft | 402 kts | 211° |
| 2026-05-06 22:10 | 41.80593 | -70.76836 | 26517 ft | 403 kts | 214° |
| 2026-05-06 22:10 | 41.78127 | -70.78638 | 26990 ft | 405 kts | 216° |
| 2026-05-06 22:10 | 41.75667 | -70.80508 | 27438 ft | 409 kts | 217° |
| 2026-05-06 22:11 | 41.73194 | -70.82412 | 27919 ft | 411 kts | 217° |
| 2026-05-06 22:11 | 41.70730 | -70.84304 | 28380 ft | 414 kts | 217° |
| 2026-05-06 22:11 | 41.68217 | -70.86221 | 28828 ft | 416 kts | 217° |
| 2026-05-06 22:11 | 41.65691 | -70.88132 | 29307 ft | 419 kts | 217° |
| 2026-05-06 22:12 | 41.63157 | -70.90034 | 30044 ft | 414 kts | 217° |
| 2026-05-06 22:12 | 41.60659 | -70.91893 | 30723 ft | 409 kts | 217° |
| 2026-05-06 22:12 | 41.58197 | -70.93800 | 31091 ft | 407 kts | 220° |
| 2026-05-06 22:12 | 41.55918 | -70.95995 | 31347 ft | 400 kts | 227° |
| 2026-05-06 22:13 | 41.53898 | -70.98511 | 31598 ft | 393 kts | 233° |
| 2026-05-06 22:13 | 41.52175 | -71.01313 | 31846 ft | 388 kts | 239° |
| 2026-05-06 22:13 | 41.50610 | -71.04234 | 32100 ft | 386 kts | 240° |
| 2026-05-06 22:13 | 41.49107 | -71.07198 | 32355 ft | 385 kts | 241° |
| 2026-05-06 22:14 | 41.47634 | -71.10175 | 32619 ft | 383 kts | 242° |
| 2026-05-06 22:14 | 41.46194 | -71.13105 | 32872 ft | 382 kts | 242° |
| 2026-05-06 22:14 | 41.44730 | -71.16073 | 33093 ft | 382 kts | 242° |
| 2026-05-06 22:14 | 41.43266 | -71.19024 | 33367 ft | 381 kts | 242° |
| 2026-05-06 22:15 | 41.41796 | -71.21968 | 33623 ft | 381 kts | 242° |
| 2026-05-06 22:15 | 41.40325 | -71.24899 | 33885 ft | 380 kts | 242° |
| 2026-05-06 22:15 | 41.38854 | -71.27819 | 34117 ft | 379 kts | 242° |
| 2026-05-06 22:15 | 41.37382 | -71.30736 | 34351 ft | 378 kts | 242° |
| 2026-05-06 22:16 | 41.35930 | -71.33611 | 34584 ft | 377 kts | 242° |
| 2026-05-06 22:16 | 41.34467 | -71.36507 | 34822 ft | 377 kts | 242° |
| 2026-05-06 22:16 | 41.33008 | -71.39394 | 35062 ft | 376 kts | 243° |
| 2026-05-06 22:16 | 41.31551 | -71.42275 | 35303 ft | 375 kts | 243° |
| 2026-05-06 22:17 | 41.30096 | -71.45151 | 35551 ft | 374 kts | 243° |
| 2026-05-06 22:17 | 41.28643 | -71.48018 | 35784 ft | 373 kts | 243° |
| 2026-05-06 22:17 | 41.25748 | -71.53727 | 35871 ft | 372 kts | 243° |
| 2026-05-06 22:18 | 41.22855 | -71.59423 | 35871 ft | 371 kts | 243° |
| 2026-05-06 22:18 | 41.20456 | -71.64137 | 35869 ft | 370 kts | 243° |
| 2026-05-06 22:19 | 41.17103 | -71.70715 | 35869 ft | 370 kts | 243° |
| 2026-05-06 22:19 | 41.14216 | -71.76369 | 35844 ft | 370 kts | 243° |
| 2026-05-06 22:20 | 41.11818 | -71.81084 | 35881 ft | 371 kts | 243° |
| 2026-05-06 22:20 | 41.08933 | -71.86757 | 35878 ft | 371 kts | 243° |
| 2026-05-06 22:21 | 41.06045 | -71.92425 | 35889 ft | 371 kts | 243° |
| 2026-05-06 22:21 | 41.03313 | -71.98161 | 35880 ft | 364 kts | 249° |
| 2026-05-06 22:22 | 41.01079 | -72.04164 | 35876 ft | 363 kts | 250° |
| 2026-05-06 22:22 | 40.98946 | -72.10216 | 35853 ft | 362 kts | 251° |
| 2026-05-06 22:23 | 40.96840 | -72.16231 | 35872 ft | 362 kts | 251° |
| 2026-05-06 22:23 | 40.94709 | -72.22281 | 35866 ft | 362 kts | 251° |
| 2026-05-06 22:24 | 40.92526 | -72.28287 | 35866 ft | 364 kts | 248° |
| 2026-05-06 22:24 | 40.89520 | -72.33770 | 35861 ft | 374 kts | 237° |
| 2026-05-06 22:25 | 40.85885 | -72.38744 | 35861 ft | 377 kts | 234° |
| 2026-05-06 22:25 | 40.82149 | -72.43569 | 35861 ft | 379 kts | 234° |
| 2026-05-06 22:26 | 40.78189 | -72.48238 | 35869 ft | 384 kts | 230° |
| 2026-05-06 22:26 | 40.74068 | -72.52742 | 35867 ft | 385 kts | 230° |
| 2026-05-06 22:27 | 40.69960 | -72.57249 | 35862 ft | 381 kts | 233° |
| 2026-05-06 22:27 | 40.66436 | -72.62283 | 35867 ft | 372 kts | 238° |
| 2026-05-06 22:28 | 40.63134 | -72.67495 | 35857 ft | 370 kts | 239° |
| 2026-05-06 22:28 | 40.59883 | -72.72732 | 35864 ft | 369 kts | 240° |
| 2026-05-06 22:29 | 40.56625 | -72.77961 | 35863 ft | 370 kts | 239° |
| 2026-05-06 22:29 | 40.53353 | -72.83178 | 35863 ft | 370 kts | 239° |
| 2026-05-06 22:30 | 40.50072 | -72.88390 | 35863 ft | 370 kts | 239° |
| 2026-05-06 22:30 | 40.46811 | -72.93561 | 35869 ft | 370 kts | 239° |
| 2026-05-06 22:31 | 40.43528 | -72.98756 | 35862 ft | 369 kts | 239° |
| 2026-05-06 22:31 | 40.40255 | -73.03928 | 35865 ft | 368 kts | 239° |
| 2026-05-06 22:32 | 40.36980 | -73.09097 | 35860 ft | 368 kts | 239° |
| 2026-05-06 22:32 | 40.33706 | -73.14257 | 35867 ft | 368 kts | 239° |
| 2026-05-06 22:33 | 40.30446 | -73.19384 | 35858 ft | 369 kts | 240° |
| 2026-05-06 22:33 | 40.27155 | -73.24554 | 35865 ft | 369 kts | 239° |
| 2026-05-06 22:34 | 40.23854 | -73.29728 | 35864 ft | 370 kts | 239° |
| 2026-05-06 22:34 | 40.20557 | -73.34884 | 35872 ft | 368 kts | 239° |
| 2026-05-06 22:35 | 40.17292 | -73.39983 | 35865 ft | 367 kts | 239° |
| 2026-05-06 22:35 | 40.14008 | -73.45107 | 35839 ft | 368 kts | 240° |
| 2026-05-06 22:36 | 40.10709 | -73.50248 | 35870 ft | 369 kts | 239° |
| 2026-05-06 22:36 | 40.07398 | -73.55394 | 35870 ft | 370 kts | 239° |
| 2026-05-06 22:37 | 40.04083 | -73.60537 | 35870 ft | 370 kts | 239° |
| 2026-05-06 22:37 | 40.00770 | -73.65669 | 35896 ft | 370 kts | 239° |
| 2026-05-06 22:38 | 39.97245 | -73.70596 | 35867 ft | 378 kts | 232° |
| 2026-05-06 22:38 | 39.95124 | -73.72684 | 35860 ft | 389 kts | 225° |
| 2026-05-06 22:38 | 39.92712 | -73.74416 | 35874 ft | 400 kts | 219° |
| 2026-05-06 22:39 | 39.87585 | -73.77332 | 35873 ft | 407 kts | 216° |
| 2026-05-06 22:39 | 39.82316 | -73.80062 | 35873 ft | 408 kts | 215° |
| 2026-05-06 22:40 | 39.77032 | -73.82801 | 35859 ft | 407 kts | 215° |
| 2026-05-06 22:40 | 39.71780 | -73.85568 | 35871 ft | 407 kts | 216° |
| 2026-05-06 22:41 | 39.63943 | -73.89725 | 35874 ft | 407 kts | 216° |
| 2026-05-06 22:42 | 39.58698 | -73.92504 | 35882 ft | 407 kts | 216° |
| 2026-05-06 22:42 | 39.53449 | -73.95278 | 35877 ft | 407 kts | 216° |
| 2026-05-06 22:43 | 39.48194 | -73.98049 | 35871 ft | 407 kts | 216° |
| 2026-05-06 22:43 | 39.42994 | -74.00891 | 35891 ft | 400 kts | 220° |
| 2026-05-06 22:43 | 39.40633 | -74.02670 | 35873 ft | 387 kts | 226° |
| 2026-05-06 22:44 | 39.38493 | -74.04728 | 35877 ft | 381 kts | 230° |
| 2026-05-06 22:44 | 39.34408 | -74.09065 | 35873 ft | 378 kts | 231° |
| 2026-05-06 22:45 | 39.30442 | -74.13446 | 35875 ft | 377 kts | 232° |
| 2026-05-06 22:45 | 39.26449 | -74.17845 | 35878 ft | 377 kts | 231° |
| 2026-05-06 22:46 | 39.22433 | -74.22232 | 35875 ft | 378 kts | 231° |
| 2026-05-06 22:46 | 39.18410 | -74.26602 | 35878 ft | 378 kts | 231° |
| 2026-05-06 22:47 | 39.14375 | -74.30979 | 35877 ft | 380 kts | 231° |
| 2026-05-06 22:47 | 39.10337 | -74.35351 | 35884 ft | 381 kts | 231° |
| 2026-05-06 22:48 | 39.06275 | -74.39738 | 35889 ft | 380 kts | 231° |
| 2026-05-06 22:48 | 39.02233 | -74.44098 | 35888 ft | 379 kts | 231° |
| 2026-05-06 22:49 | 38.98193 | -74.48454 | 35876 ft | 379 kts | 231° |
| 2026-05-06 22:49 | 38.94159 | -74.52814 | 35889 ft | 380 kts | 231° |
| 2026-05-06 22:50 | 38.90219 | -74.57327 | 35889 ft | 379 kts | 233° |
| 2026-05-06 22:50 | 38.86336 | -74.61910 | 35895 ft | 379 kts | 233° |
| 2026-05-06 22:51 | 38.82478 | -74.66458 | 35894 ft | 379 kts | 233° |
| 2026-05-06 22:51 | 38.78582 | -74.71020 | 35855 ft | 379 kts | 233° |
| 2026-05-06 22:52 | 38.74645 | -74.75574 | 35893 ft | 384 kts | 231° |
| 2026-05-06 22:52 | 38.70515 | -74.79973 | 35893 ft | 387 kts | 230° |
| 2026-05-06 22:53 | 38.66318 | -74.84291 | 35897 ft | 387 kts | 230° |
| 2026-05-06 22:53 | 38.62125 | -74.88609 | 35898 ft | 387 kts | 230° |
| 2026-05-06 22:54 | 38.57939 | -74.92946 | 35898 ft | 388 kts | 230° |
| 2026-05-06 22:54 | 38.53775 | -74.97270 | 35903 ft | 389 kts | 230° |
| 2026-05-06 22:55 | 38.49660 | -75.01727 | 35906 ft | 387 kts | 231° |
| 2026-05-06 22:55 | 38.45558 | -75.06207 | 35914 ft | 390 kts | 229° |
| 2026-05-06 22:56 | 38.41226 | -75.10425 | 35907 ft | 393 kts | 227° |
| 2026-05-06 22:56 | 38.36801 | -75.14573 | 35906 ft | 397 kts | 227° |
| 2026-05-06 22:57 | 38.32336 | -75.18765 | 35906 ft | 399 kts | 227° |
| 2026-05-06 22:57 | 38.27898 | -75.22952 | 35906 ft | 399 kts | 227° |
| 2026-05-06 22:58 | 38.23430 | -75.27175 | 35906 ft | 400 kts | 227° |
| 2026-05-06 22:58 | 38.18960 | -75.31398 | 35884 ft | 400 kts | 227° |
| 2026-05-06 22:59 | 38.14479 | -75.35630 | 35904 ft | 403 kts | 227° |
| 2026-05-06 22:59 | 38.09960 | -75.39886 | 35901 ft | 404 kts | 227° |
| 2026-05-06 23:00 | 38.05459 | -75.44105 | 35919 ft | 404 kts | 227° |
| 2026-05-06 23:00 | 38.00859 | -75.48207 | 35914 ft | 404 kts | 225° |
| 2026-05-06 23:01 | 37.96200 | -75.52245 | 35917 ft | 408 kts | 225° |
| 2026-05-06 23:01 | 37.91485 | -75.56330 | 35916 ft | 411 kts | 225° |
| 2026-05-06 23:02 | 37.86780 | -75.60384 | 35914 ft | 414 kts | 223° |
| 2026-05-06 23:02 | 37.81452 | -75.63558 | 35916 ft | 434 kts | 210° |
| 2026-05-06 23:03 | 37.75625 | -75.65798 | 35900 ft | 440 kts | 206° |
| 2026-05-06 23:03 | 37.69672 | -75.67843 | 35915 ft | 444 kts | 206° |
| 2026-05-06 23:04 | 37.63701 | -75.69880 | 35916 ft | 444 kts | 206° |
| 2026-05-06 23:04 | 37.57781 | -75.71931 | 35916 ft | 444 kts | 206° |
| 2026-05-06 23:05 | 37.51833 | -75.74010 | 35915 ft | 444 kts | 206° |
| 2026-05-06 23:05 | 37.45871 | -75.76096 | 35917 ft | 444 kts | 206° |
| 2026-05-06 23:06 | 37.39922 | -75.78173 | 35918 ft | 444 kts | 206° |
| 2026-05-06 23:06 | 37.33971 | -75.80236 | 35914 ft | 443 kts | 207° |
| 2026-05-06 23:07 | 37.28018 | -75.82313 | 35921 ft | 446 kts | 207° |
| 2026-05-06 23:07 | 37.23042 | -75.84049 | 35921 ft | 447 kts | 207° |
| 2026-05-06 23:08 | 37.16065 | -75.86468 | 35919 ft | 447 kts | 207° |
| 2026-05-06 23:08 | 37.11037 | -75.88231 | 35920 ft | 444 kts | 209° |
| 2026-05-06 23:08 | 37.08244 | -75.89595 | 35916 ft | 428 kts | 217° |
| 2026-05-06 23:09 | 37.05596 | -75.91238 | 35932 ft | 420 kts | 219° |
| 2026-05-06 23:09 | 37.00475 | -75.94701 | 35913 ft | 416 kts | 220° |
| 2026-05-06 23:10 | 36.95428 | -75.98251 | 35908 ft | 416 kts | 221° |
| 2026-05-06 23:10 | 36.90384 | -76.01787 | 35907 ft | 416 kts | 220° |
| 2026-05-06 23:11 | 36.85309 | -76.05313 | 35909 ft | 418 kts | 220° |
| 2026-05-06 23:11 | 36.80214 | -76.08837 | 35905 ft | 419 kts | 220° |
| 2026-05-06 23:12 | 36.75111 | -76.12355 | 35919 ft | 419 kts | 220° |
| 2026-05-06 23:12 | 36.70048 | -76.15838 | 35915 ft | 418 kts | 221° |
| 2026-05-06 23:13 | 36.64966 | -76.19328 | 35909 ft | 416 kts | 221° |
| 2026-05-06 23:13 | 36.59894 | -76.22816 | 35925 ft | 417 kts | 221° |
| 2026-05-06 23:14 | 36.54806 | -76.26309 | 35939 ft | 417 kts | 221° |
| 2026-05-06 23:14 | 36.49753 | -76.29769 | 35937 ft | 417 kts | 221° |
| 2026-05-06 23:15 | 36.44668 | -76.33247 | 35939 ft | 417 kts | 221° |
| 2026-05-06 23:15 | 36.39563 | -76.36735 | 35937 ft | 419 kts | 221° |
| 2026-05-06 23:16 | 36.34445 | -76.40224 | 35938 ft | 420 kts | 221° |
| 2026-05-06 23:16 | 36.29318 | -76.43711 | 36195 ft | 419 kts | 221° |
| 2026-05-06 23:16 | 36.26768 | -76.45441 | 36597 ft | 417 kts | 221° |
| 2026-05-06 23:17 | 36.24223 | -76.47166 | 37007 ft | 416 kts | 221° |
| 2026-05-06 23:17 | 36.21693 | -76.48881 | 37406 ft | 414 kts | 222° |
| 2026-05-06 23:17 | 36.19164 | -76.50597 | 37701 ft | 415 kts | 222° |
| 2026-05-06 23:17 | 36.16627 | -76.52320 | 37911 ft | 415 kts | 222° |
| 2026-05-06 23:18 | 36.14104 | -76.54028 | 37947 ft | 413 kts | 222° |
| 2026-05-06 23:18 | 36.09077 | -76.57428 | 37944 ft | 412 kts | 222° |
| 2026-05-06 23:19 | 36.04049 | -76.60829 | 37942 ft | 411 kts | 222° |
| 2026-05-06 23:19 | 35.99053 | -76.64203 | 37918 ft | 411 kts | 223° |
| 2026-05-06 23:20 | 35.93969 | -76.67554 | 37945 ft | 421 kts | 218° |
| 2026-05-06 23:20 | 35.88497 | -76.70386 | 37950 ft | 428 kts | 216° |
| 2026-05-06 23:21 | 35.82967 | -76.73037 | 37961 ft | 429 kts | 215° |
| 2026-05-06 23:21 | 35.77381 | -76.75665 | 37969 ft | 429 kts | 215° |
| 2026-05-06 23:22 | 35.71801 | -76.78299 | 37975 ft | 430 kts | 215° |
| 2026-05-06 23:22 | 35.66210 | -76.80949 | 37968 ft | 430 kts | 215° |
| 2026-05-06 23:23 | 35.60617 | -76.83600 | 37981 ft | 430 kts | 215° |
| 2026-05-06 23:23 | 35.55029 | -76.86245 | 37980 ft | 430 kts | 215° |
| 2026-05-06 23:24 | 35.49475 | -76.88866 | 37963 ft | 429 kts | 216° |
| 2026-05-06 23:24 | 35.43908 | -76.91494 | 37968 ft | 429 kts | 216° |
| 2026-05-06 23:25 | 35.38335 | -76.94122 | 37968 ft | 428 kts | 216° |
| 2026-05-06 23:25 | 35.32764 | -76.96744 | 37975 ft | 428 kts | 216° |
| 2026-05-06 23:26 | 35.27196 | -76.99360 | 37980 ft | 429 kts | 216° |
| 2026-05-06 23:26 | 35.21653 | -77.01959 | 37990 ft | 428 kts | 216° |
| 2026-05-06 23:27 | 35.16080 | -77.04568 | 37993 ft | 428 kts | 216° |
| 2026-05-06 23:27 | 35.10512 | -77.07172 | 37989 ft | 428 kts | 216° |
| 2026-05-06 23:28 | 35.04942 | -77.09773 | 37976 ft | 429 kts | 216° |
| 2026-05-06 23:28 | 34.99345 | -77.12385 | 37990 ft | 431 kts | 215° |
| 2026-05-06 23:29 | 34.93776 | -77.14977 | 37992 ft | 431 kts | 215° |
| 2026-05-06 23:29 | 34.88165 | -77.17582 | 37995 ft | 431 kts | 215° |
| 2026-05-06 23:30 | 34.82553 | -77.20186 | 38011 ft | 431 kts | 215° |
| 2026-05-06 23:30 | 34.76944 | -77.22787 | 38014 ft | 432 kts | 215° |
| 2026-05-06 23:31 | 34.71330 | -77.25383 | 37995 ft | 430 kts | 215° |
| 2026-05-06 23:31 | 34.65743 | -77.27962 | 37996 ft | 429 kts | 215° |
| 2026-05-06 23:32 | 34.60158 | -77.30541 | 37988 ft | 429 kts | 215° |
| 2026-05-06 23:32 | 34.54605 | -77.33104 | 37991 ft | 430 kts | 215° |
| 2026-05-06 23:33 | 34.48996 | -77.35687 | 37994 ft | 430 kts | 215° |
| 2026-05-06 23:33 | 34.43419 | -77.38248 | 38004 ft | 431 kts | 215° |
| 2026-05-06 23:34 | 34.37778 | -77.40835 | 38012 ft | 431 kts | 215° |
| 2026-05-06 23:34 | 34.32198 | -77.43392 | 37995 ft | 432 kts | 215° |
| 2026-05-06 23:35 | 34.26571 | -77.45971 | 38015 ft | 433 kts | 215° |
| 2026-05-06 23:35 | 34.20921 | -77.48551 | 38014 ft | 434 kts | 215° |
| 2026-05-06 23:36 | 34.15268 | -77.51128 | 38018 ft | 434 kts | 215° |
| 2026-05-06 23:36 | 34.09615 | -77.53701 | 37987 ft | 434 kts | 215° |
| 2026-05-06 23:37 | 34.03954 | -77.56280 | 38021 ft | 435 kts | 214° |
| 2026-05-06 23:37 | 33.98284 | -77.58856 | 38023 ft | 436 kts | 214° |
| 2026-05-06 23:38 | 33.92704 | -77.61382 | 38025 ft | 434 kts | 214° |
| 2026-05-06 23:38 | 33.87063 | -77.63933 | 38026 ft | 432 kts | 215° |
| 2026-05-06 23:39 | 33.81427 | -77.66487 | 38026 ft | 433 kts | 214° |
| 2026-05-06 23:39 | 33.75780 | -77.69040 | 38025 ft | 433 kts | 214° |
| 2026-05-06 23:40 | 33.70133 | -77.71586 | 38028 ft | 434 kts | 214° |
| 2026-05-06 23:40 | 33.64309 | -77.73714 | 38029 ft | 442 kts | 210° |
| 2026-05-06 23:41 | 33.58375 | -77.75678 | 38024 ft | 443 kts | 208° |
| 2026-05-06 23:41 | 33.52414 | -77.77607 | 38037 ft | 444 kts | 208° |
| 2026-05-06 23:42 | 33.46448 | -77.79538 | 38042 ft | 443 kts | 208° |
| 2026-05-06 23:42 | 33.40484 | -77.81476 | 38040 ft | 443 kts | 208° |
| 2026-05-06 23:43 | 33.34533 | -77.83412 | 38014 ft | 443 kts | 208° |
| 2026-05-06 23:43 | 33.28577 | -77.85348 | 38045 ft | 443 kts | 208° |
| 2026-05-06 23:44 | 33.22619 | -77.87281 | 38043 ft | 444 kts | 208° |
| 2026-05-06 23:44 | 33.16694 | -77.89200 | 38048 ft | 444 kts | 208° |
| 2026-05-06 23:45 | 33.10735 | -77.91128 | 38045 ft | 444 kts | 208° |
| 2026-05-06 23:45 | 33.04779 | -77.93055 | 38048 ft | 443 kts | 208° |
| 2026-05-06 23:46 | 32.98849 | -77.95048 | 38048 ft | 442 kts | 209° |
| 2026-05-06 23:46 | 32.92945 | -77.97080 | 38041 ft | 440 kts | 209° |
| 2026-05-06 23:47 | 32.87053 | -77.99103 | 38048 ft | 439 kts | 209° |
| 2026-05-06 23:47 | 32.81180 | -78.01113 | 38048 ft | 439 kts | 209° |
| 2026-05-06 23:48 | 32.75335 | -78.03107 | 38049 ft | 439 kts | 209° |
| 2026-05-06 23:48 | 32.69464 | -78.05105 | 38051 ft | 439 kts | 209° |
| 2026-05-06 23:49 | 32.63584 | -78.07103 | 38053 ft | 439 kts | 209° |
| 2026-05-06 23:49 | 32.57699 | -78.09100 | 38036 ft | 439 kts | 208° |
| 2026-05-06 23:50 | 32.51849 | -78.11086 | 38062 ft | 440 kts | 208° |
| 2026-05-06 23:50 | 32.43010 | -78.14074 | 38063 ft | 440 kts | 208° |
| 2026-05-06 23:51 | 32.37110 | -78.16066 | 38057 ft | 440 kts | 208° |
| 2026-05-06 23:51 | 32.31207 | -78.18058 | 38056 ft | 441 kts | 208° |
| 2026-05-06 23:52 | 32.25304 | -78.20048 | 38067 ft | 441 kts | 208° |
| 2026-05-06 23:52 | 32.19392 | -78.22036 | 38067 ft | 442 kts | 208° |
| 2026-05-06 23:53 | 32.13509 | -78.24010 | 38067 ft | 442 kts | 208° |
| 2026-05-06 23:53 | 32.07599 | -78.25993 | 38067 ft | 442 kts | 207° |
| 2026-05-06 23:54 | 32.02687 | -78.27642 | 38072 ft | 442 kts | 207° |
| 2026-05-06 23:54 | 31.96751 | -78.29628 | 38072 ft | 443 kts | 207° |
| 2026-05-06 23:55 | 31.90817 | -78.31610 | 38072 ft | 443 kts | 207° |
| 2026-05-06 23:55 | 31.84879 | -78.33591 | 38075 ft | 443 kts | 207° |
| 2026-05-06 23:56 | 31.78942 | -78.35569 | 38069 ft | 444 kts | 207° |
| 2026-05-06 23:56 | 31.72991 | -78.37551 | 38080 ft | 444 kts | 207° |
| 2026-05-06 23:57 | 31.67080 | -78.39516 | 38078 ft | 444 kts | 207° |
| 2026-05-06 23:57 | 31.61128 | -78.41492 | 38078 ft | 444 kts | 207° |
| 2026-05-06 23:58 | 31.55178 | -78.43465 | 38080 ft | 444 kts | 207° |
| 2026-05-06 23:58 | 31.49210 | -78.45430 | 38083 ft | 445 kts | 207° |
| 2026-05-06 23:59 | 31.43235 | -78.47370 | 38083 ft | 446 kts | 207° |
| 2026-05-06 23:59 | 31.37288 | -78.49293 | 38083 ft | 446 kts | 207° |
| 2026-05-07 00:00 | 31.31299 | -78.51231 | 38090 ft | 446 kts | 207° |
| 2026-05-07 00:00 | 31.25316 | -78.53167 | 38090 ft | 447 kts | 206° |
| 2026-05-07 00:01 | 31.19315 | -78.55107 | 38086 ft | 447 kts | 206° |
| 2026-05-07 00:01 | 31.13311 | -78.57043 | 38085 ft | 447 kts | 206° |
| 2026-05-07 00:02 | 31.07309 | -78.58976 | 38091 ft | 447 kts | 206° |
| 2026-05-07 00:02 | 31.01344 | -78.60895 | 38076 ft | 447 kts | 206° |
| 2026-05-07 00:03 | 30.95333 | -78.62828 | 38087 ft | 448 kts | 206° |
| 2026-05-07 00:03 | 30.89315 | -78.64759 | 38087 ft | 448 kts | 206° |
| 2026-05-07 00:04 | 30.83303 | -78.66686 | 38089 ft | 448 kts | 206° |
| 2026-05-07 00:04 | 30.77282 | -78.68613 | 38094 ft | 448 kts | 206° |
| 2026-05-07 00:05 | 30.71281 | -78.70530 | 38086 ft | 446 kts | 205° |
| 2026-05-07 00:05 | 30.65293 | -78.72442 | 38087 ft | 446 kts | 205° |
| 2026-05-07 00:06 | 30.59334 | -78.74343 | 38090 ft | 446 kts | 205° |
| 2026-05-07 00:06 | 30.53350 | -78.76249 | 38090 ft | 446 kts | 205° |
| 2026-05-07 00:07 | 30.47369 | -78.78161 | 38078 ft | 446 kts | 205° |
| 2026-05-07 00:07 | 30.41376 | -78.80068 | 38091 ft | 447 kts | 205° |
| 2026-05-07 00:08 | 30.35374 | -78.81965 | 38091 ft | 447 kts | 205° |
| 2026-05-07 00:08 | 30.29375 | -78.83861 | 38087 ft | 447 kts | 205° |
| 2026-05-07 00:09 | 30.23419 | -78.85745 | 38093 ft | 447 kts | 205° |
| 2026-05-07 00:09 | 30.17415 | -78.87643 | 38096 ft | 447 kts | 205° |
| 2026-05-07 00:10 | 30.11320 | -78.89575 | 38089 ft | 458 kts | 205° |
| 2026-05-07 00:10 | 30.05146 | -78.91519 | 38091 ft | 460 kts | 205° |